createdAt,value
2022-07-27T00:01:52.042Z,15.24
2022-07-27T00:04:58.195Z,15.22
2022-07-27T00:08:04.415Z,15.19
2022-07-27T00:11:11.750Z,15.17
2022-07-27T00:14:17.906Z,15.16
2022-07-27T00:17:24.391Z,15.11
2022-07-27T00:20:31.385Z,15.09
2022-07-27T00:23:37.595Z,15.07
2022-07-27T00:26:43.970Z,15.03
2022-07-27T00:29:50.191Z,15.00
2022-07-27T00:32:57.280Z,14.96
2022-07-27T00:36:03.554Z,14.89
2022-07-27T00:39:09.999Z,14.86
2022-07-27T00:42:16.415Z,14.82
2022-07-27T00:45:22.754Z,14.80
2022-07-27T00:48:29.386Z,14.76
2022-07-27T00:51:35.906Z,14.72
2022-07-27T00:54:42.143Z,14.69
2022-07-27T00:57:59.111Z,14.64
2022-07-27T01:01:06.106Z,14.57
2022-07-27T01:04:12.350Z,14.52
2022-07-27T01:07:18.794Z,14.53
2022-07-27T01:10:25.118Z,14.53
2022-07-27T01:13:31.641Z,14.52
2022-07-27T01:16:37.903Z,14.50
2022-07-27T01:19:44.427Z,14.45
2022-07-27T01:22:50.932Z,14.41
2022-07-27T01:25:57.141Z,14.38
2022-07-27T01:29:04.155Z,14.35
2022-07-27T01:32:10.685Z,14.32
2022-07-27T01:35:16.819Z,14.30
2022-07-27T01:38:21.351Z,14.26
2022-07-27T01:41:27.563Z,14.21
2022-07-27T01:44:33.758Z,14.15
2022-07-27T01:47:39.909Z,14.13
2022-07-27T01:50:47.526Z,14.07
2022-07-27T01:53:54.158Z,14.02
2022-07-27T01:56:58.550Z,13.97
2022-07-27T02:00:05.483Z,13.94
2022-07-27T02:03:12.831Z,13.94
2022-07-27T02:06:19.119Z,13.94
2022-07-27T02:09:25.995Z,13.92
2022-07-27T02:12:38.517Z,13.92
2022-07-27T02:15:44.816Z,13.89
2022-07-27T02:18:50.972Z,13.81
2022-07-27T02:21:55.667Z,13.78
2022-07-27T02:25:01.849Z,13.78
2022-07-27T02:28:06.767Z,13.78
2022-07-27T02:31:12.907Z,13.75
2022-07-27T02:34:17.533Z,13.72
2022-07-27T02:37:23.898Z,13.71
2022-07-27T02:40:30.137Z,13.68
2022-07-27T02:43:36.384Z,13.67
2022-07-27T02:46:42.496Z,13.64
2022-07-27T02:49:46.983Z,13.60
2022-07-27T02:52:53.243Z,13.59
2022-07-27T02:55:59.707Z,13.58
2022-07-27T02:59:05.903Z,13.58
2022-07-27T03:02:10.384Z,13.54
2022-07-27T03:05:16.480Z,13.50
2022-07-27T03:08:21.039Z,13.47
2022-07-27T03:11:27.222Z,13.42
2022-07-27T03:14:31.901Z,13.40
2022-07-27T03:17:37.990Z,13.35
2022-07-27T03:20:42.478Z,13.34
2022-07-27T03:23:48.701Z,13.32
2022-07-27T03:26:54.882Z,13.35
2022-07-27T03:29:59.502Z,13.35
2022-07-27T03:33:05.782Z,13.33
2022-07-27T03:36:12.210Z,13.32
2022-07-27T03:39:18.822Z,13.30
2022-07-27T03:42:25.254Z,13.28
2022-07-27T03:45:32.709Z,13.31
2022-07-27T03:48:39.076Z,13.33
2022-07-27T03:51:45.741Z,13.36
2022-07-27T03:54:52.297Z,13.37
2022-07-27T03:57:58.731Z,13.41
2022-07-27T04:01:05.129Z,13.42
2022-07-27T04:04:11.442Z,13.44
2022-07-27T04:07:17.803Z,13.48
2022-07-27T04:10:24.252Z,13.53
2022-07-27T04:13:33.957Z,13.62
2022-07-27T04:16:42.426Z,13.68
2022-07-27T04:19:48.645Z,13.73
2022-07-27T04:22:53.154Z,13.80
2022-07-27T04:25:59.567Z,13.90
2022-07-27T04:29:06.001Z,14.04
2022-07-27T04:32:12.211Z,14.22
2022-07-27T04:35:22.588Z,14.38
2022-07-27T04:38:31.987Z,14.57
2022-07-27T04:41:36.531Z,14.71
2022-07-27T04:44:42.644Z,14.89
2022-07-27T04:47:47.235Z,15.15
2022-07-27T04:50:53.363Z,15.42
2022-07-27T04:53:58.487Z,15.69
2022-07-27T04:57:05.194Z,15.95
2022-07-27T05:00:13.897Z,16.19
2022-07-27T05:03:20.066Z,16.33
2022-07-27T05:06:26.571Z,16.57
2022-07-27T05:09:32.716Z,16.85
2022-07-27T05:12:39.296Z,17.12
2022-07-27T05:15:54.703Z,17.28
2022-07-27T05:19:01.923Z,17.47
2022-07-27T05:22:08.154Z,17.70
2022-07-27T05:25:14.962Z,17.93
2022-07-27T05:28:21.178Z,18.14
2022-07-27T05:31:27.419Z,18.35
2022-07-27T05:34:33.842Z,18.60
2022-07-27T05:37:40.138Z,18.82
2022-07-27T05:40:48.196Z,18.95
2022-07-27T05:43:55.578Z,19.11
2022-07-27T05:47:01.767Z,19.27
2022-07-27T05:50:12.968Z,19.47
2022-07-27T05:53:19.202Z,19.63
2022-07-27T05:56:25.358Z,19.76
2022-07-27T05:59:32.846Z,19.88
2022-07-27T06:02:38.876Z,20.11
2022-07-27T06:05:45.009Z,20.43
2022-07-27T06:08:51.264Z,20.62
2022-07-27T06:11:57.356Z,20.89
2022-07-27T06:15:03.826Z,21.13
2022-07-27T06:18:18.396Z,21.38
2022-07-27T06:21:28.180Z,21.66
2022-07-27T06:24:34.404Z,21.86
2022-07-27T06:27:40.669Z,22.05
2022-07-27T06:30:46.921Z,22.20
2022-07-27T06:33:53.941Z,22.35
2022-07-27T06:37:02.169Z,22.48
2022-07-27T06:40:10.051Z,22.59
2022-07-27T06:43:16.205Z,22.70
2022-07-27T06:46:22.401Z,22.79
2022-07-27T06:49:28.713Z,22.87
2022-07-27T06:52:35.322Z,23.01
2022-07-27T06:55:41.893Z,22.93
2022-07-27T06:58:48.650Z,22.71
2022-07-27T07:01:54.879Z,22.57
2022-07-27T07:05:01.097Z,22.42
2022-07-27T07:08:11.843Z,22.36
2022-07-27T07:11:18.207Z,22.26
2022-07-27T07:14:26.977Z,22.12
2022-07-27T07:17:33.196Z,22.01
2022-07-27T07:20:40.124Z,21.90
2022-07-27T07:23:46.259Z,22.06
2022-07-27T07:26:52.455Z,22.13
2022-07-27T07:29:59.248Z,22.07
2022-07-27T07:33:05.574Z,21.98
2022-07-27T07:36:13.928Z,21.95
2022-07-27T07:39:21.021Z,21.84
2022-07-27T07:42:27.331Z,21.71
2022-07-27T07:45:35.404Z,21.69
2022-07-27T07:48:43.531Z,21.67
2022-07-27T07:51:49.795Z,21.67
2022-07-27T07:54:55.992Z,21.63
2022-07-27T07:58:02.095Z,21.61
2022-07-27T08:01:08.319Z,21.59
2022-07-27T08:04:14.472Z,21.49
2022-07-27T08:07:20.655Z,21.57
2022-07-27T08:10:28.412Z,21.66
2022-07-27T08:13:34.567Z,21.69
2022-07-27T08:16:40.900Z,21.82
2022-07-27T08:19:47.142Z,22.02
2022-07-27T08:22:53.258Z,22.35
2022-07-27T08:26:04.102Z,22.53
2022-07-27T08:29:14.235Z,22.79
2022-07-27T08:32:21.442Z,22.94
2022-07-27T08:35:29.194Z,23.11
2022-07-27T08:38:35.412Z,23.22
2022-07-27T08:41:43.111Z,23.04
2022-07-27T08:44:49.659Z,23.06
2022-07-27T08:47:56.916Z,22.85
2022-07-27T08:51:03.131Z,22.56
2022-07-27T08:54:09.888Z,22.59
2022-07-27T08:57:16.228Z,22.67
2022-07-27T09:00:23.625Z,22.68
2022-07-27T09:03:29.956Z,22.77
2022-07-27T09:06:54.114Z,22.87
2022-07-27T09:10:01.123Z,23.01
2022-07-27T09:13:21.425Z,23.17
2022-07-27T09:17:14.873Z,23.16
2022-07-27T09:20:01.887Z,23.11
2022-07-27T09:23:07.974Z,23.11
2022-07-27T09:26:30.629Z,23.09
2022-07-27T09:29:39.373Z,23.22
2022-07-27T09:32:55.442Z,23.44
2022-07-27T09:36:02.167Z,23.75
2022-07-27T09:39:08.966Z,23.93
2022-07-27T09:43:03.818Z,23.91
2022-07-27T09:45:51.237Z,23.85
2022-07-27T09:48:58.492Z,24.02
2022-07-27T09:52:05.889Z,24.24
2022-07-27T09:55:13.015Z,24.43
2022-07-27T09:58:19.228Z,24.46
2022-07-27T10:01:26.522Z,24.43
2022-07-27T10:04:35.716Z,24.70
2022-07-27T10:07:42.171Z,24.72
2022-07-27T10:10:48.351Z,24.75
2022-07-27T10:13:56.510Z,24.76
2022-07-27T10:17:03.767Z,24.96
2022-07-27T10:20:13.501Z,25.20
2022-07-27T10:23:30.439Z,25.26
2022-07-27T10:26:38.899Z,25.35
2022-07-27T10:29:47.508Z,25.47
2022-07-27T10:32:53.671Z,25.52
2022-07-27T10:36:02.563Z,25.67
2022-07-27T10:39:09.747Z,25.83
2022-07-27T10:42:30.045Z,25.89
2022-07-27T10:45:52.625Z,25.66
2022-07-27T10:49:21.857Z,25.44
2022-07-27T10:52:45.125Z,25.48
2022-07-27T10:55:52.454Z,25.50
2022-07-27T10:58:58.651Z,25.61
2022-07-27T11:02:06.029Z,25.91
2022-07-27T11:05:48.431Z,25.92
2022-07-27T11:08:46.946Z,26.13
2022-07-27T11:11:56.022Z,26.12
2022-07-27T11:15:02.331Z,25.96
2022-07-27T11:18:08.651Z,25.95
2022-07-27T11:21:25.831Z,26.09
2022-07-27T11:24:35.228Z,26.30
2022-07-27T11:27:51.576Z,26.46
2022-07-27T11:30:57.871Z,26.64
2022-07-27T11:34:04.183Z,26.66
2022-07-27T11:37:19.395Z,26.65
2022-07-27T11:40:53.861Z,26.70
2022-07-27T11:43:50.222Z,26.83
2022-07-27T11:47:01.568Z,27.00
2022-07-27T11:50:14.474Z,27.09
2022-07-27T11:53:24.265Z,27.15
2022-07-27T11:56:33.615Z,27.20
2022-07-27T11:59:40.639Z,27.00
2022-07-27T12:02:53.120Z,26.74
2022-07-27T12:06:00.766Z,26.76
2022-07-27T12:09:08.167Z,26.88
2022-07-27T12:12:16.694Z,27.01
2022-07-27T12:18:49.808Z,26.87
2022-07-27T12:21:56.431Z,26.79
2022-07-27T12:25:11.296Z,26.82
2022-07-27T12:28:28.073Z,26.96
2022-07-27T12:31:34.388Z,27.03
2022-07-27T12:34:40.598Z,27.04
2022-07-27T12:37:46.823Z,27.13
2022-07-27T12:41:00.862Z,27.34
2022-07-27T12:44:12.674Z,27.47
2022-07-27T12:47:43.191Z,27.54
2022-07-27T12:50:57.959Z,27.42
2022-07-27T12:54:04.225Z,27.27
2022-07-27T12:57:10.476Z,27.39
2022-07-27T13:00:18.656Z,27.62
2022-07-27T13:03:24.864Z,27.84
2022-07-27T13:06:31.374Z,27.95
2022-07-27T13:10:03.051Z,28.00
2022-07-27T13:13:06.016Z,27.77
2022-07-27T13:16:12.276Z,27.62
2022-07-27T13:19:18.532Z,27.44
2022-07-27T13:22:24.644Z,27.21
2022-07-27T13:25:30.831Z,27.05
2022-07-27T13:28:36.912Z,26.90
2022-07-27T13:31:49.224Z,26.88
2022-07-27T13:34:58.948Z,26.80
2022-07-27T13:38:05.206Z,26.66
2022-07-27T13:41:11.451Z,26.55
2022-07-27T13:44:41.806Z,26.54
2022-07-27T13:47:44.429Z,26.50
2022-07-27T13:50:50.704Z,26.53
2022-07-27T13:53:56.897Z,26.43
2022-07-27T13:57:02.946Z,26.35
2022-07-27T14:00:11.403Z,26.41
2022-07-27T14:03:17.515Z,26.48
2022-07-27T14:06:25.758Z,26.55
2022-07-27T14:09:46.271Z,26.55
2022-07-27T14:12:58.344Z,26.52
2022-07-27T14:16:06.914Z,26.57
2022-07-27T14:19:13.778Z,26.62
2022-07-27T14:22:20.256Z,26.67
2022-07-27T14:25:26.442Z,26.76
2022-07-27T14:28:32.559Z,26.75
2022-07-27T14:31:38.878Z,26.69
2022-07-27T14:34:45.073Z,26.69
2022-07-27T14:37:51.274Z,26.75
2022-07-27T14:40:57.777Z,26.60
2022-07-27T14:44:04.754Z,26.47
2022-07-27T14:47:11.118Z,26.47
2022-07-27T14:50:17.389Z,26.45
2022-07-27T14:53:23.541Z,26.36
2022-07-27T14:56:29.755Z,26.33
2022-07-27T14:59:36.253Z,26.32
2022-07-27T15:02:42.746Z,26.32
2022-07-27T15:05:49.675Z,26.36
2022-07-27T15:08:56.970Z,26.44
2022-07-27T15:12:03.151Z,26.49
2022-07-27T15:15:11.454Z,26.38
2022-07-27T15:18:19.481Z,26.38
2022-07-27T15:21:25.862Z,26.33
2022-07-27T15:24:36.444Z,26.18
2022-07-27T15:27:44.546Z,25.98
2022-07-27T15:30:50.594Z,25.89
2022-07-27T15:33:56.775Z,25.81
2022-07-27T15:37:03.763Z,25.74
2022-07-27T15:40:29.658Z,25.67
2022-07-27T15:43:35.894Z,25.60
2022-07-27T15:46:43.137Z,25.53
2022-07-27T15:49:49.483Z,25.44
2022-07-27T15:52:55.626Z,25.41
2022-07-27T15:56:01.802Z,25.45
2022-07-27T15:59:07.886Z,25.48
2022-07-27T16:02:14.542Z,25.49
2022-07-27T16:05:20.706Z,25.49
2022-07-27T16:08:29.955Z,25.56
2022-07-27T16:11:36.231Z,25.62
2022-07-27T16:14:42.462Z,25.63
2022-07-27T16:17:48.631Z,25.49
2022-07-27T16:20:54.870Z,25.33
2022-07-27T16:24:01.475Z,25.21
2022-07-27T16:27:08.059Z,25.10
2022-07-27T16:30:20.597Z,24.98
2022-07-27T16:33:27.382Z,24.82
2022-07-27T16:36:38.607Z,24.68
2022-07-27T16:39:45.858Z,24.61
2022-07-27T16:42:52.295Z,24.57
2022-07-27T16:46:02.990Z,24.53
2022-07-27T16:49:09.341Z,24.49
2022-07-27T16:52:15.610Z,24.45
2022-07-27T16:55:22.632Z,24.39
2022-07-27T16:58:34.103Z,24.33
2022-07-27T17:01:40.502Z,24.28
2022-07-27T17:04:47.030Z,24.24
2022-07-27T17:07:54.339Z,24.20
2022-07-27T17:11:02.386Z,24.16
2022-07-27T17:14:08.909Z,24.10
2022-07-27T17:17:16.493Z,24.02
2022-07-27T17:20:34.896Z,23.96
2022-07-27T17:23:42.031Z,23.86
2022-07-27T17:26:48.190Z,23.79
2022-07-27T17:29:54.293Z,23.70
2022-07-27T17:33:00.455Z,23.61
2022-07-27T17:36:12.278Z,23.51
2022-07-27T17:39:21.982Z,23.38
2022-07-27T17:42:28.186Z,23.24
2022-07-27T17:45:34.279Z,23.13
2022-07-27T17:48:41.395Z,23.03
2022-07-27T17:51:47.621Z,22.92
2022-07-27T17:54:53.813Z,22.82
2022-07-27T17:57:59.890Z,22.72
2022-07-27T18:01:06.519Z,22.62
2022-07-27T18:04:13.062Z,22.53
2022-07-27T18:07:19.465Z,22.45
2022-07-27T18:10:25.968Z,22.38
2022-07-27T18:13:38.791Z,22.27
2022-07-27T18:16:45.938Z,22.14
2022-07-27T18:19:52.160Z,22.03
2022-07-27T18:22:58.988Z,21.94
2022-07-27T18:26:05.499Z,21.85
2022-07-27T18:29:12.005Z,21.77
2022-07-27T18:32:18.355Z,21.69
2022-07-27T18:35:24.467Z,21.63
2022-07-27T18:38:30.684Z,21.57
2022-07-27T18:41:38.511Z,21.50
2022-07-27T18:44:44.686Z,21.42
2022-07-27T18:47:50.857Z,21.36
2022-07-27T18:50:57.022Z,21.32
2022-07-27T18:54:03.990Z,21.26
2022-07-27T18:57:10.286Z,21.23
2022-07-27T19:00:17.731Z,21.19
2022-07-27T19:03:24.824Z,21.12
2022-07-27T19:06:34.186Z,21.05
2022-07-27T19:09:41.931Z,20.97
2022-07-27T19:12:48.738Z,20.91
2022-07-27T19:15:54.962Z,20.91
2022-07-27T19:19:01.729Z,20.90
2022-07-27T19:22:08.406Z,20.87
2022-07-27T19:25:16.067Z,20.85
2022-07-27T19:28:23.004Z,20.82
2022-07-27T19:31:29.812Z,20.77
2022-07-27T19:34:36.876Z,20.71
2022-07-27T19:37:43.079Z,20.62
2022-07-27T19:41:00.204Z,20.57
2022-07-27T19:44:06.880Z,20.56
2022-07-27T19:47:13.351Z,20.55
2022-07-27T19:50:19.635Z,20.53
2022-07-27T19:53:25.825Z,20.51
2022-07-27T19:56:37.092Z,20.51
2022-07-27T19:59:54.943Z,20.51
2022-07-27T20:03:03.339Z,20.48
2022-07-27T20:06:11.306Z,20.44
2022-07-27T20:09:17.766Z,20.39
2022-07-27T20:12:23.923Z,20.35
2022-07-27T20:15:30.518Z,20.31
2022-07-27T20:18:37.703Z,20.27
2022-07-27T20:21:43.811Z,20.27
2022-07-27T20:24:50.015Z,20.24
2022-07-27T20:27:56.193Z,20.20
2022-07-27T20:31:02.369Z,20.17
2022-07-27T20:34:08.711Z,20.14
2022-07-27T20:37:14.903Z,20.12
2022-07-27T20:40:21.342Z,20.11
2022-07-27T20:43:28.210Z,20.09
2022-07-27T20:46:34.723Z,20.08
2022-07-27T20:49:41.058Z,20.07
2022-07-27T20:52:48.137Z,20.05
2022-07-27T20:55:54.463Z,20.03
2022-07-27T20:59:00.624Z,20.01
2022-07-27T21:02:07.781Z,19.95
2022-07-27T21:05:14.473Z,19.90
2022-07-27T21:08:20.594Z,19.85
2022-07-27T21:11:27.243Z,19.83
2022-07-27T21:14:33.394Z,19.80
2022-07-27T21:17:39.536Z,19.77
2022-07-27T21:20:45.701Z,19.77
2022-07-27T21:24:09.623Z,19.74
2022-07-27T21:27:15.963Z,19.71
2022-07-27T21:30:27.376Z,19.70
2022-07-27T21:33:39.172Z,19.68
2022-07-27T21:36:47.022Z,19.65
2022-07-27T21:39:53.235Z,19.61
2022-07-27T21:42:59.475Z,19.59
2022-07-27T21:46:05.710Z,19.57
2022-07-27T21:49:13.497Z,19.54
2022-07-27T21:52:19.751Z,19.53
2022-07-27T21:55:26.355Z,19.52
2022-07-27T21:58:32.583Z,19.52
2022-07-27T22:01:40.150Z,19.50
2022-07-27T22:04:46.606Z,19.48
2022-07-27T22:07:53.519Z,19.47
2022-07-27T22:11:00.021Z,19.43
2022-07-27T22:14:06.326Z,19.41
2022-07-27T22:17:12.593Z,19.40
2022-07-27T22:20:18.946Z,19.39
2022-07-27T22:23:25.388Z,19.39
2022-07-27T22:26:31.651Z,19.36
2022-07-27T22:29:38.027Z,19.33
2022-07-27T22:32:44.397Z,19.30
2022-07-27T22:35:50.726Z,19.27
2022-07-27T22:38:57.105Z,19.26
2022-07-27T22:42:03.764Z,19.26
2022-07-27T22:45:11.814Z,19.21
2022-07-27T22:48:18.114Z,19.18
2022-07-27T22:51:24.436Z,19.17
2022-07-27T22:54:33.466Z,19.17
2022-07-27T22:57:39.545Z,19.18
2022-07-27T23:00:45.877Z,19.18
2022-07-27T23:03:52.554Z,19.17
2022-07-27T23:06:59.203Z,19.16
2022-07-27T23:10:05.915Z,19.15
2022-07-27T23:13:12.839Z,19.14
2022-07-27T23:16:19.610Z,19.12
2022-07-27T23:19:26.000Z,19.13
2022-07-27T23:22:32.381Z,19.10
2022-07-27T23:25:40.596Z,19.09
2022-07-27T23:28:46.874Z,19.09
2022-07-27T23:31:53.498Z,19.11
2022-07-27T23:34:59.908Z,19.10
2022-07-27T23:38:06.717Z,19.06
2022-07-27T23:41:12.977Z,19.02
2022-07-27T23:44:19.167Z,18.99
2022-07-27T23:47:25.520Z,18.97
2022-07-27T23:50:32.303Z,18.94
2022-07-27T23:53:38.589Z,18.93
2022-07-27T23:56:44.824Z,18.93
2022-07-27T23:59:51.113Z,18.92
